createdAt,value
2022-09-30T00:00:56.282Z,11.15
2022-09-30T00:03:24.163Z,11.13
2022-09-30T00:06:04.360Z,11.13
2022-09-30T00:08:34.354Z,11.13
2022-09-30T00:11:05.591Z,11.13
2022-09-30T00:13:32.788Z,11.10
2022-09-30T00:15:59.951Z,11.11
2022-09-30T00:18:27.449Z,11.10
2022-09-30T00:20:54.242Z,11.05
2022-09-30T00:23:21.163Z,11.07
2022-09-30T00:25:48.267Z,11.08
2022-09-30T00:28:15.278Z,11.07
2022-09-30T00:30:41.795Z,11.06
2022-09-30T00:33:08.287Z,11.05
2022-09-30T00:35:34.772Z,11.04
2022-09-30T00:38:01.247Z,11.04
2022-09-30T00:40:27.871Z,11.01
2022-09-30T00:42:54.316Z,11.02
2022-09-30T00:45:21.709Z,11.03
2022-09-30T00:48:07.889Z,11.03
2022-09-30T00:50:55.611Z,11.04
2022-09-30T00:53:29.909Z,11.06
2022-09-30T00:56:02.222Z,11.05
2022-09-30T00:58:31.558Z,11.05
2022-09-30T01:00:59.579Z,10.96
2022-09-30T01:03:26.286Z,10.91
2022-09-30T01:05:52.827Z,10.81
2022-09-30T01:08:20.839Z,10.83
2022-09-30T01:10:47.317Z,10.89
2022-09-30T01:13:15.021Z,10.93
2022-09-30T01:15:54.860Z,10.96
2022-09-30T01:18:36.767Z,10.97
2022-09-30T01:21:20.432Z,10.98
2022-09-30T01:23:47.354Z,11.00
2022-09-30T01:26:33.262Z,11.04
2022-09-30T01:29:17.979Z,11.03
2022-09-30T01:32:19.824Z,11.00
2022-09-30T01:35:01.309Z,11.01
2022-09-30T01:37:38.654Z,11.00
2022-09-30T01:40:12.226Z,10.99
2022-09-30T01:42:42.903Z,10.99
2022-09-30T01:45:09.493Z,10.99
2022-09-30T01:48:02.429Z,10.96
2022-09-30T01:50:38.044Z,10.82
2022-09-30T01:53:04.649Z,10.74
2022-09-30T01:55:34.496Z,10.78
2022-09-30T01:58:00.954Z,10.80
2022-09-30T02:00:28.180Z,10.84
2022-09-30T02:02:54.632Z,10.84
2022-09-30T02:05:25.725Z,10.85
2022-09-30T02:07:56.076Z,10.88
2022-09-30T02:10:27.911Z,10.87
2022-09-30T02:13:03.414Z,10.89
2022-09-30T02:15:39.703Z,10.90
2022-09-30T02:18:22.337Z,10.88
2022-09-30T02:20:50.498Z,10.89
2022-09-30T02:23:25.784Z,10.89
2022-09-30T02:25:56.143Z,10.88
2022-09-30T02:28:27.180Z,10.86
2022-09-30T02:30:56.373Z,10.87
2022-09-30T02:33:25.432Z,10.84
2022-09-30T02:35:59.696Z,10.88
2022-09-30T02:38:29.642Z,10.90
2022-09-30T02:41:04.861Z,10.89
2022-09-30T02:43:32.106Z,10.90
2022-09-30T02:46:10.667Z,10.92
2022-09-30T02:48:46.693Z,10.94
2022-09-30T02:51:21.124Z,10.96
2022-09-30T02:54:16.301Z,10.96
2022-09-30T02:56:50.040Z,10.88
2022-09-30T02:59:16.584Z,10.80
2022-09-30T03:01:43.444Z,10.76
2022-09-30T03:04:12.471Z,10.71
2022-09-30T03:06:39.541Z,10.76
2022-09-30T03:09:06.161Z,10.82
2022-09-30T03:11:32.669Z,10.83
2022-09-30T03:14:05.257Z,10.86
2022-09-30T03:16:40.879Z,10.87
2022-09-30T03:19:25.907Z,10.87
2022-09-30T03:21:52.308Z,10.92
2022-09-30T03:24:27.812Z,10.91
2022-09-30T03:27:04.572Z,10.91
2022-09-30T03:29:31.111Z,10.93
2022-09-30T03:32:06.250Z,10.96
2022-09-30T03:34:40.398Z,10.98
2022-09-30T03:37:09.823Z,10.98
2022-09-30T03:39:45.417Z,11.00
2022-09-30T03:42:11.897Z,11.02
2022-09-30T03:44:38.376Z,11.04
2022-09-30T03:47:08.648Z,11.05
2022-09-30T03:49:40.253Z,11.06
2022-09-30T03:52:07.831Z,11.07
2022-09-30T03:54:38.304Z,11.09
2022-09-30T03:57:05.578Z,11.10
2022-09-30T03:59:32.080Z,11.10
2022-09-30T04:01:58.533Z,11.10
2022-09-30T04:04:24.999Z,11.10
2022-09-30T04:06:51.457Z,11.13
2022-09-30T04:09:18.001Z,11.13
2022-09-30T04:11:44.541Z,11.14
2022-09-30T04:14:11.013Z,11.13
2022-09-30T04:16:37.526Z,11.14
2022-09-30T04:19:04.077Z,11.13
2022-09-30T04:21:30.997Z,11.14
2022-09-30T04:23:57.447Z,11.15
2022-09-30T04:26:23.898Z,11.16
2022-09-30T04:28:51.562Z,11.17
2022-09-30T04:31:21.255Z,11.17
2022-09-30T04:33:47.794Z,11.17
2022-09-30T04:36:14.267Z,11.16
2022-09-30T04:38:40.732Z,11.16
2022-09-30T04:41:07.567Z,11.15
2022-09-30T04:43:34.555Z,11.15
2022-09-30T04:46:01.460Z,11.15
2022-09-30T04:48:31.442Z,11.16
2022-09-30T04:50:59.760Z,11.17
2022-09-30T04:53:26.383Z,11.17
2022-09-30T04:55:58.472Z,11.18
2022-09-30T04:58:24.892Z,11.18
2022-09-30T05:00:51.377Z,11.20
2022-09-30T05:03:19.256Z,11.22
2022-09-30T05:05:46.059Z,11.23
2022-09-30T05:08:12.470Z,11.23
2022-09-30T05:10:40.442Z,11.23
2022-09-30T05:13:07.018Z,11.23
2022-09-30T05:15:34.962Z,11.24
2022-09-30T05:18:01.935Z,11.25
2022-09-30T05:20:28.349Z,11.27
2022-09-30T05:22:56.138Z,11.28
2022-09-30T05:25:23.586Z,11.29
2022-09-30T05:27:50.582Z,11.29
2022-09-30T05:30:17.306Z,11.30
2022-09-30T05:32:44.232Z,11.30
2022-09-30T05:35:12.113Z,11.25
2022-09-30T05:37:39.023Z,11.25
2022-09-30T05:40:06.066Z,11.20
2022-09-30T05:42:36.035Z,11.17
2022-09-30T05:45:06.753Z,11.16
2022-09-30T05:47:33.555Z,11.13
2022-09-30T05:50:00.032Z,11.11
2022-09-30T05:52:26.526Z,11.11
2022-09-30T05:54:53.005Z,11.14
2022-09-30T05:57:19.377Z,11.16
2022-09-30T05:59:45.818Z,11.19
2022-09-30T06:02:12.389Z,11.24
2022-09-30T06:04:38.866Z,11.23
2022-09-30T06:07:10.385Z,11.27
2022-09-30T06:09:37.195Z,11.30
2022-09-30T06:12:03.715Z,11.36
2022-09-30T06:14:30.404Z,11.40
2022-09-30T06:16:56.832Z,11.44
2022-09-30T06:19:23.297Z,11.50
2022-09-30T06:21:49.768Z,11.52
2022-09-30T06:24:16.216Z,11.57
2022-09-30T06:26:43.281Z,11.60
2022-09-30T06:29:09.768Z,11.65
2022-09-30T06:31:36.311Z,11.70
2022-09-30T06:34:02.945Z,11.74
2022-09-30T06:36:29.443Z,11.78
2022-09-30T06:38:55.846Z,11.82
2022-09-30T06:41:25.810Z,11.85
2022-09-30T06:43:58.146Z,11.87
2022-09-30T06:46:30.920Z,11.89
2022-09-30T06:49:09.194Z,11.93
2022-09-30T06:51:38.873Z,11.96
2022-09-30T06:54:05.266Z,11.99
2022-09-30T06:56:32.118Z,12.03
2022-09-30T06:58:58.573Z,12.05
2022-09-30T07:01:25.023Z,12.08
2022-09-30T07:03:58.033Z,12.12
2022-09-30T07:06:26.426Z,12.14
2022-09-30T07:08:54.237Z,12.13
2022-09-30T07:11:20.921Z,12.18
2022-09-30T07:13:49.205Z,12.21
2022-09-30T07:16:18.046Z,12.23
2022-09-30T07:18:45.719Z,12.25
2022-09-30T07:21:13.767Z,12.25
2022-09-30T07:23:49.274Z,12.21
2022-09-30T07:26:16.533Z,12.23
2022-09-30T07:28:43.670Z,12.27
2022-09-30T07:31:32.077Z,12.32
2022-09-30T07:33:58.488Z,12.36
2022-09-30T07:36:32.211Z,12.40
2022-09-30T07:38:59.439Z,12.41
2022-09-30T07:41:28.948Z,12.39
2022-09-30T07:43:56.613Z,12.39
2022-09-30T07:46:25.327Z,12.40
2022-09-30T07:48:54.547Z,12.41
2022-09-30T07:51:23.278Z,12.41
2022-09-30T07:53:51.194Z,12.46
2022-09-30T07:56:18.231Z,12.51
2022-09-30T07:58:44.890Z,12.55
2022-09-30T08:01:11.524Z,12.59
2022-09-30T08:03:39.803Z,12.58
2022-09-30T08:06:10.818Z,12.58
2022-09-30T08:08:37.234Z,12.59
2022-09-30T08:11:04.303Z,12.60
2022-09-30T08:13:30.673Z,12.62
2022-09-30T08:15:57.067Z,12.64
2022-09-30T08:18:23.584Z,12.63
2022-09-30T08:20:50.136Z,12.62
2022-09-30T08:23:17.450Z,12.65
2022-09-30T08:25:43.985Z,12.69
2022-09-30T08:28:10.418Z,12.74
2022-09-30T08:30:37.629Z,12.81
2022-09-30T08:33:04.247Z,12.82
2022-09-30T08:35:31.124Z,12.75
2022-09-30T08:37:57.492Z,12.74
2022-09-30T08:40:23.889Z,12.78
2022-09-30T08:43:09.234Z,12.82
2022-09-30T08:45:44.692Z,12.89
2022-09-30T08:48:29.243Z,12.89
2022-09-30T08:51:09.360Z,12.88
2022-09-30T08:53:38.229Z,12.92
2022-09-30T08:56:05.965Z,12.87
2022-09-30T08:58:38.789Z,12.87
2022-09-30T09:01:23.617Z,12.84
2022-09-30T09:03:50.068Z,12.89
2022-09-30T09:06:39.437Z,12.93
2022-09-30T09:09:32.618Z,12.97
2022-09-30T09:12:03.239Z,13.04
2022-09-30T09:14:29.633Z,13.10
2022-09-30T09:17:02.927Z,13.14
2022-09-30T09:19:37.116Z,13.14
2022-09-30T09:22:03.731Z,13.12
2022-09-30T09:24:34.244Z,13.10
2022-09-30T09:27:01.326Z,13.05
2022-09-30T09:29:27.711Z,13.05
2022-09-30T09:31:54.838Z,13.05
2022-09-30T09:34:23.801Z,13.07
2022-09-30T09:37:11.568Z,13.11
2022-09-30T09:39:40.755Z,13.08
2022-09-30T09:42:07.498Z,13.03
2022-09-30T09:44:36.903Z,13.02
2022-09-30T09:47:14.140Z,13.01
2022-09-30T09:49:43.559Z,13.06
2022-09-30T09:52:12.813Z,13.15
2022-09-30T09:54:47.188Z,13.22
2022-09-30T09:57:18.111Z,13.26
2022-09-30T10:00:20.955Z,13.28
2022-09-30T10:03:01.347Z,13.29
2022-09-30T10:05:29.963Z,13.33
2022-09-30T10:08:16.741Z,13.38
2022-09-30T10:10:53.661Z,13.41
2022-09-30T10:13:24.003Z,13.46
2022-09-30T10:15:52.340Z,13.51
2022-09-30T10:18:21.370Z,13.52
2022-09-30T10:20:52.640Z,13.51
2022-09-30T10:23:19.040Z,13.55
2022-09-30T10:25:55.652Z,13.59
2022-09-30T10:28:27.006Z,13.63
2022-09-30T10:30:55.696Z,13.66
2022-09-30T10:33:25.704Z,13.68
2022-09-30T10:35:54.854Z,13.73
2022-09-30T10:38:22.182Z,13.78
2022-09-30T10:40:50.448Z,13.80
2022-09-30T10:43:30.195Z,13.77
2022-09-30T10:46:24.047Z,13.75
2022-09-30T10:48:49.200Z,13.70
2022-09-30T10:51:23.653Z,13.66
2022-09-30T10:53:50.459Z,13.60
2022-09-30T10:56:31.932Z,13.59
2022-09-30T10:58:59.320Z,13.60
2022-09-30T11:01:28.764Z,13.61
2022-09-30T11:04:30.974Z,13.66
2022-09-30T11:07:08.592Z,13.69
2022-09-30T11:09:37.734Z,13.68
2022-09-30T11:12:09.008Z,13.69
2022-09-30T11:14:48.545Z,13.69
2022-09-30T11:17:22.784Z,13.71
2022-09-30T11:19:59.042Z,13.73
2022-09-30T11:22:37.583Z,13.79
2022-09-30T11:25:08.732Z,13.87
2022-09-30T11:27:44.873Z,13.90
2022-09-30T11:30:23.915Z,13.88
2022-09-30T11:33:13.541Z,13.94
2022-09-30T11:36:12.053Z,13.98
2022-09-30T11:38:44.362Z,14.07
2022-09-30T11:41:20.246Z,14.07
2022-09-30T11:44:06.928Z,14.15
2022-09-30T11:46:45.174Z,14.21
2022-09-30T11:49:11.568Z,14.24
2022-09-30T11:51:44.107Z,14.29
2022-09-30T11:54:13.568Z,14.30
2022-09-30T11:56:43.102Z,14.33
2022-09-30T11:59:16.913Z,14.36
2022-09-30T12:01:45.637Z,14.37
2022-09-30T12:04:12.015Z,14.38
2022-09-30T12:06:48.960Z,14.40
2022-09-30T12:09:22.282Z,14.41
2022-09-30T12:12:03.310Z,14.41
2022-09-30T12:14:35.441Z,14.42
2022-09-30T12:17:05.799Z,14.44
2022-09-30T12:19:43.871Z,14.46
2022-09-30T12:22:13.132Z,14.46
2022-09-30T12:24:40.725Z,14.46
2022-09-30T12:27:27.533Z,14.47
2022-09-30T12:30:16.234Z,14.50
2022-09-30T12:32:51.460Z,14.54
2022-09-30T12:35:20.874Z,14.56
2022-09-30T12:37:53.515Z,14.59
2022-09-30T12:40:22.894Z,14.60
2022-09-30T12:42:58.628Z,14.60
2022-09-30T12:45:43.176Z,14.58
2022-09-30T12:48:17.154Z,14.59
2022-09-30T12:50:49.416Z,14.61
2022-09-30T12:53:22.491Z,14.58
2022-09-30T12:55:49.158Z,14.57
2022-09-30T12:58:29.811Z,14.61
2022-09-30T13:01:02.912Z,14.65
2022-09-30T13:03:43.335Z,14.64
2022-09-30T13:06:09.869Z,14.63
2022-09-30T13:08:42.856Z,14.62
2022-09-30T13:11:31.258Z,14.59
2022-09-30T13:14:13.718Z,14.58
2022-09-30T13:17:01.246Z,14.62
2022-09-30T13:19:47.577Z,14.61
2022-09-30T13:22:32.409Z,14.62
2022-09-30T13:25:05.064Z,14.63
2022-09-30T13:27:39.140Z,14.67
2022-09-30T13:30:15.657Z,14.66
2022-09-30T13:33:04.461Z,14.70
2022-09-30T13:35:40.003Z,14.70
2022-09-30T13:38:29.358Z,14.74
2022-09-30T13:41:03.668Z,14.78
2022-09-30T13:44:05.464Z,14.81
2022-09-30T13:46:52.611Z,14.83
2022-09-30T13:49:19.039Z,14.85
2022-09-30T13:51:45.873Z,14.86
2022-09-30T13:54:18.230Z,14.89
2022-09-30T13:56:44.723Z,14.92
2022-09-30T13:59:13.378Z,14.97
2022-09-30T14:01:54.106Z,14.98
2022-09-30T14:04:35.760Z,14.99
2022-09-30T14:07:02.107Z,15.01
2022-09-30T14:09:29.738Z,15.04
2022-09-30T14:12:16.427Z,15.07
2022-09-30T14:15:08.299Z,15.10
2022-09-30T14:17:37.770Z,15.13
2022-09-30T14:20:23.016Z,15.13
2022-09-30T14:22:49.571Z,15.14
2022-09-30T14:25:17.708Z,15.18
2022-09-30T14:27:59.278Z,15.20
2022-09-30T14:30:27.176Z,15.19
2022-09-30T14:32:59.167Z,15.19
2022-09-30T14:35:32.819Z,15.22
2022-09-30T14:38:06.966Z,15.20
2022-09-30T14:40:34.385Z,15.19
2022-09-30T14:43:05.711Z,15.20
2022-09-30T14:45:41.559Z,15.20
2022-09-30T14:48:10.171Z,15.24
2022-09-30T14:50:40.115Z,15.23
2022-09-30T14:53:23.752Z,15.24
2022-09-30T14:55:50.267Z,15.26
2022-09-30T14:58:18.239Z,15.25
2022-09-30T15:00:47.126Z,15.25
2022-09-30T15:03:13.957Z,15.22
2022-09-30T15:05:41.226Z,15.22
2022-09-30T15:08:18.133Z,15.22
2022-09-30T15:10:48.473Z,15.18
2022-09-30T15:13:15.374Z,15.19
2022-09-30T15:15:41.789Z,15.15
2022-09-30T15:18:26.801Z,15.14
2022-09-30T15:20:55.195Z,15.12
2022-09-30T15:23:25.390Z,15.10
2022-09-30T15:25:52.838Z,15.08
2022-09-30T15:28:19.270Z,15.07
2022-09-30T15:30:45.760Z,15.05
2022-09-30T15:33:15.427Z,15.04
2022-09-30T15:35:41.809Z,15.02
2022-09-30T15:38:09.951Z,15.00
2022-09-30T15:40:56.994Z,14.95
2022-09-30T15:43:32.934Z,14.91
2022-09-30T15:46:15.447Z,14.88
2022-09-30T15:48:44.760Z,14.84
2022-09-30T15:51:30.114Z,14.82
2022-09-30T15:54:00.388Z,14.78
2022-09-30T15:56:31.423Z,14.74
2022-09-30T15:58:59.220Z,14.70
2022-09-30T16:01:45.893Z,14.66
2022-09-30T16:04:24.400Z,14.60
2022-09-30T16:06:51.754Z,14.53
2022-09-30T16:09:18.563Z,14.47
2022-09-30T16:12:00.994Z,14.42
2022-09-30T16:14:28.783Z,14.34
2022-09-30T16:16:56.806Z,14.28
2022-09-30T16:19:26.723Z,14.20
2022-09-30T16:21:54.774Z,14.14
2022-09-30T16:24:21.165Z,14.10
2022-09-30T16:26:47.773Z,14.07
2022-09-30T16:29:17.585Z,14.02
2022-09-30T16:31:45.693Z,13.94
2022-09-30T16:34:20.274Z,13.88
2022-09-30T16:36:46.676Z,13.79
2022-09-30T16:39:14.753Z,13.73
2022-09-30T16:41:41.152Z,13.69
2022-09-30T16:44:07.537Z,13.63
2022-09-30T16:46:34.237Z,13.57
2022-09-30T16:49:11.453Z,13.53
2022-09-30T16:51:37.813Z,13.49
2022-09-30T16:54:04.740Z,13.46
2022-09-30T16:56:31.543Z,13.43
2022-09-30T16:58:58.191Z,13.40
2022-09-30T17:01:26.072Z,13.39
2022-09-30T17:03:52.940Z,13.39
2022-09-30T17:06:20.341Z,13.39
2022-09-30T17:08:49.507Z,13.41
2022-09-30T17:11:16.526Z,13.39
2022-09-30T17:13:43.991Z,13.42
2022-09-30T17:16:10.591Z,13.44
2022-09-30T17:18:37.048Z,13.47
2022-09-30T17:21:03.522Z,13.52
2022-09-30T17:23:29.933Z,13.53
2022-09-30T17:25:56.391Z,13.55
2022-09-30T17:28:22.842Z,13.58
2022-09-30T17:30:50.449Z,13.60
2022-09-30T17:33:18.615Z,13.57
2022-09-30T17:35:45.013Z,13.54
2022-09-30T17:38:12.826Z,13.52
2022-09-30T17:40:58.328Z,13.54
2022-09-30T17:43:24.697Z,13.57
2022-09-30T17:45:52.188Z,13.59
2022-09-30T17:48:18.986Z,13.60
2022-09-30T17:50:46.788Z,13.62
2022-09-30T17:53:14.229Z,13.60
2022-09-30T17:55:41.013Z,13.63
2022-09-30T17:58:08.681Z,13.63
2022-09-30T18:00:35.214Z,13.64
2022-09-30T18:03:02.892Z,13.64
2022-09-30T18:05:30.090Z,13.64
2022-09-30T18:07:57.243Z,13.67
2022-09-30T18:10:23.716Z,13.67
2022-09-30T18:12:51.775Z,13.69
2022-09-30T18:15:18.669Z,13.71
2022-09-30T18:17:45.066Z,13.73
2022-09-30T18:20:11.843Z,13.71
2022-09-30T18:22:38.560Z,13.70
2022-09-30T18:25:20.821Z,13.70
2022-09-30T18:27:47.858Z,13.70
2022-09-30T18:30:14.342Z,13.69
2022-09-30T18:32:42.130Z,13.70
2022-09-30T18:35:12.308Z,13.66
2022-09-30T18:37:39.225Z,13.63
2022-09-30T18:40:05.955Z,13.61
2022-09-30T18:42:32.432Z,13.60
2022-09-30T18:44:58.849Z,13.55
2022-09-30T18:47:25.462Z,13.51
2022-09-30T18:49:52.253Z,13.47
2022-09-30T18:52:18.693Z,13.44
2022-09-30T18:54:45.125Z,13.38
2022-09-30T18:57:11.652Z,13.35
2022-09-30T18:59:38.066Z,13.32
2022-09-30T19:02:04.644Z,13.27
2022-09-30T19:04:31.077Z,13.27
2022-09-30T19:06:57.533Z,13.23
2022-09-30T19:09:26.616Z,13.19
2022-09-30T19:11:53.152Z,13.18
2022-09-30T19:14:19.786Z,13.20
2022-09-30T19:16:46.339Z,13.19
2022-09-30T19:19:12.984Z,13.15
2022-09-30T19:21:39.982Z,13.12
2022-09-30T19:24:07.343Z,13.07
2022-09-30T19:26:34.766Z,13.06
2022-09-30T19:29:01.179Z,13.04
2022-09-30T19:31:28.417Z,13.02
2022-09-30T19:33:57.131Z,13.03
2022-09-30T19:36:24.795Z,13.00
2022-09-30T19:38:55.528Z,12.93
2022-09-30T19:41:26.508Z,12.88
2022-09-30T19:43:52.941Z,12.84
2022-09-30T19:46:21.605Z,12.84
2022-09-30T19:48:48.036Z,12.80
2022-09-30T19:51:16.917Z,12.79
2022-09-30T19:53:52.016Z,12.78
2022-09-30T19:56:26.058Z,12.76
2022-09-30T19:58:53.521Z,12.73
2022-09-30T20:01:28.231Z,12.72
2022-09-30T20:03:55.424Z,12.72
2022-09-30T20:06:24.984Z,12.68
2022-09-30T20:08:59.083Z,12.67
2022-09-30T20:11:26.405Z,12.64
2022-09-30T20:14:13.720Z,12.65
2022-09-30T20:16:41.061Z,12.64
2022-09-30T20:19:07.838Z,12.61
2022-09-30T20:21:34.743Z,12.58
2022-09-30T20:24:02.471Z,12.60
2022-09-30T20:26:29.090Z,12.58
2022-09-30T20:29:00.187Z,12.60
2022-09-30T20:31:27.385Z,12.60
2022-09-30T20:33:54.937Z,12.57
2022-09-30T20:36:22.126Z,12.58
2022-09-30T20:38:51.889Z,12.58
2022-09-30T20:41:18.332Z,12.58
2022-09-30T20:43:48.403Z,12.57
2022-09-30T20:46:14.944Z,12.58
2022-09-30T20:48:41.348Z,12.57
2022-09-30T20:51:12.305Z,12.57
2022-09-30T20:53:39.791Z,12.55
2022-09-30T20:56:10.063Z,12.55
2022-09-30T20:58:37.371Z,12.55
2022-09-30T21:01:08.448Z,12.55
2022-09-30T21:03:38.902Z,12.54
2022-09-30T21:06:06.924Z,12.54
2022-09-30T21:08:40.425Z,12.53
2022-09-30T21:11:07.441Z,12.51
2022-09-30T21:13:35.314Z,12.50
2022-09-30T21:16:04.114Z,12.47
2022-09-30T21:18:31.235Z,12.47
2022-09-30T21:20:58.881Z,12.45
2022-09-30T21:23:25.948Z,12.43
2022-09-30T21:26:02.467Z,12.40
2022-09-30T21:28:29.117Z,12.40
2022-09-30T21:30:56.333Z,12.41
2022-09-30T21:33:25.785Z,12.41
2022-09-30T21:36:02.446Z,12.42
2022-09-30T21:38:29.588Z,12.43
2022-09-30T21:41:00.542Z,12.43
2022-09-30T21:43:31.097Z,12.42
2022-09-30T21:46:01.497Z,12.43
2022-09-30T21:48:28.475Z,12.35
2022-09-30T21:50:56.320Z,12.32
2022-09-30T21:53:26.303Z,12.35
2022-09-30T21:55:56.370Z,12.37
2022-09-30T21:58:25.258Z,12.37
2022-09-30T22:01:02.437Z,12.37
2022-09-30T22:03:37.268Z,12.38
2022-09-30T22:06:06.774Z,12.38
2022-09-30T22:08:35.447Z,12.37
2022-09-30T22:11:02.780Z,12.35
2022-09-30T22:13:29.219Z,12.34
2022-09-30T22:16:02.268Z,12.33
2022-09-30T22:18:29.173Z,12.30
2022-09-30T22:20:55.570Z,12.29
2022-09-30T22:23:21.989Z,12.27
2022-09-30T22:25:48.351Z,12.29
2022-09-30T22:28:14.842Z,12.27
2022-09-30T22:30:41.400Z,12.29
2022-09-30T22:33:26.426Z,12.28
2022-09-30T22:36:13.384Z,12.26
2022-09-30T22:38:39.777Z,12.26
2022-09-30T22:41:06.134Z,12.23
2022-09-30T22:43:32.605Z,12.22
2022-09-30T22:46:03.124Z,12.22
2022-09-30T22:48:30.420Z,12.24
2022-09-30T22:50:57.556Z,12.22
2022-09-30T22:53:24.700Z,12.21
2022-09-30T22:55:51.678Z,12.20
2022-09-30T22:58:18.510Z,12.12
2022-09-30T23:00:52.560Z,12.12
2022-09-30T23:03:18.979Z,12.14
2022-09-30T23:05:45.426Z,12.13
2022-09-30T23:08:11.861Z,12.09
2022-09-30T23:10:39.971Z,12.09
2022-09-30T23:13:08.980Z,12.05
2022-09-30T23:15:35.430Z,12.07
2022-09-30T23:18:01.848Z,12.08
2022-09-30T23:20:28.239Z,12.08
2022-09-30T23:22:54.599Z,12.09
2022-09-30T23:25:21.021Z,12.08
2022-09-30T23:27:48.145Z,12.09
2022-09-30T23:30:14.811Z,12.12
2022-09-30T23:32:41.174Z,12.12
2022-09-30T23:35:07.799Z,12.12
2022-09-30T23:37:34.210Z,12.10
2022-09-30T23:40:00.716Z,12.10
2022-09-30T23:42:29.140Z,12.07
2022-09-30T23:44:55.489Z,12.08
2022-09-30T23:47:21.876Z,12.06
2022-09-30T23:49:48.457Z,12.06
2022-09-30T23:52:15.009Z,12.06
2022-09-30T23:54:41.906Z,12.06
2022-09-30T23:57:08.587Z,12.08
2022-09-30T23:59:34.954Z,12.09
